Time;durP1;ratioP1;P1;durP2;ratioP2;P2;SDS_P1;SDS_P2;PMS_P1;PMS_P2;Temp;Humidity;BMP_temperature;BMP_pressure;BME280_temperature;BME280_humidity;BME280_pressure;Samples;Min_cycle;Max_cycle;Signal;HPM_P1;HPM_P2
2021/04/08 00:00:29;;;;;;;8.00;4.78;;;;;;;;;;5120583;28;20402;-91
2021/04/08 00:02:55;;;;;;;7.72;4.82;;;;;;;;;;5120933;28;20065;-89
2021/04/08 00:05:21;;;;;;;7.45;4.50;;;;;;;;;;5119658;28;20019;-89
2021/04/08 00:07:47;;;;;;;11.85;7.00;;;;;;;;;;5120739;28;20024;-91
2021/04/08 00:10:14;;;;;;;9.93;5.43;;;;;;;;;;5120438;28;20027;-89
2021/04/08 00:12:59;;;;;;;11.18;5.40;;;;;;;;;;5128252;27;20076;-91
2021/04/08 00:15:25;;;;;;;10.38;5.70;;;;;;;;;;5140822;27;20023;-91
2021/04/08 00:17:51;;;;;;;9.32;5.50;;;;;;;;;;5141128;27;20027;-90
2021/04/08 00:20:18;;;;;;;11.50;6.65;;;;;;;;;;5139564;27;20043;-90
2021/04/08 00:22:44;;;;;;;9.45;6.15;;;;;;;;;;5141043;27;20023;-90
2021/04/08 00:25:11;;;;;;;10.50;5.82;;;;;;;;;;5139931;27;20152;-90
2021/04/08 00:27:37;;;;;;;10.30;5.80;;;;;;;;;;5140986;27;20034;-91
2021/04/08 00:30:04;;;;;;;9.35;5.93;;;;;;;;;;5140789;27;20023;-90
2021/04/08 00:32:30;;;;;;;12.00;6.13;;;;;;;;;;5140571;27;20049;-87
2021/04/08 00:34:56;;;;;;;12.75;6.82;;;;;;;;;;5140993;27;20038;-90
2021/04/08 00:37:22;;;;;;;13.90;6.78;;;;;;;;;;5140917;27;20027;-90
2021/04/08 00:39:48;;;;;;;12.65;6.80;;;;;;;;;;5140042;27;20047;-88
2021/04/08 00:42:15;;;;;;;11.77;6.38;;;;;;;;;;5140218;27;20022;-90
2021/04/08 00:44:41;;;;;;;15.07;7.18;;;;;;;;;;5140199;27;20089;-88
2021/04/08 00:47:07;;;;;;;11.35;6.70;;;;;;;;;;5140588;27;20328;-89
2021/04/08 00:49:33;;;;;;;14.10;6.28;;;;;;;;;;5140124;27;20024;-90
2021/04/08 00:51:59;;;;;;;13.23;6.43;;;;;;;;;;5140433;27;20020;-90
2021/04/08 00:54:25;;;;;;;12.30;5.80;;;;;;;;;;5140069;27;20056;-94
2021/04/08 00:56:56;;;;;;;10.93;5.43;;;;;;;;;;5140633;27;20022;-92
2021/04/08 00:59:23;;;;;;;10.10;6.18;;;;;;;;;;5140111;27;20072;-92
2021/04/08 01:01:49;;;;;;;8.80;6.90;;;;;;;;;;5139867;27;20023;-92
2021/04/08 01:04:15;;;;;;;11.10;7.28;;;;;;;;;;5139902;27;20019;-91
2021/04/08 01:06:41;;;;;;;12.95;7.10;;;;;;;;;;5140248;27;20409;-92
2021/04/08 01:09:07;;;;;;;12.13;7.18;;;;;;;;;;5140007;27;20028;-90
2021/04/08 01:11:33;;;;;;;11.85;6.93;;;;;;;;;;5138586;27;20054;-92
2021/04/08 01:17:06;;;;;;;11.40;6.28;;;;;;;;;;5140132;27;20148;-90
2021/04/08 01:19:38;;;;;;;10.65;6.20;;;;;;;;;;5139525;27;20059;-89
2021/04/08 01:22:32;;;;;;;11.98;6.35;;;;;;;;;;5138655;27;20030;-89
2021/04/08 01:25:17;;;;;;;9.60;5.35;;;;;;;;;;5139638;27;20027;-90
2021/04/08 01:28:00;;;;;;;12.40;6.20;;;;;;;;;;5138631;27;20152;-90
2021/04/08 01:30:38;;;;;;;10.05;6.10;;;;;;;;;;5139242;27;20042;-90
2021/04/08 01:33:06;;;;;;;9.13;5.70;;;;;;;;;;5138477;27;20416;-88
2021/04/08 01:35:34;;;;;;;9.38;6.05;;;;;;;;;;5139640;27;20071;-89
2021/04/08 01:38:11;;;;;;;10.40;5.68;;;;;;;;;;5138383;27;20458;-88
2021/04/08 01:40:38;;;;;;;10.40;5.75;;;;;;;;;;5139445;27;20343;-89
2021/04/08 01:43:05;;;;;;;12.57;5.40;;;;;;;;;;5139257;27;20027;-89
2021/04/08 01:45:31;;;;;;;9.52;5.43;;;;;;;;;;5139437;27;20286;-89
2021/04/08 01:47:59;;;;;;;11.73;5.97;;;;;;;;;;5139487;27;20035;-90
2021/04/08 01:50:26;;;;;;;10.43;5.72;;;;;;;;;;5139026;27;20027;-91
2021/04/08 01:52:52;;;;;;;11.73;5.88;;;;;;;;;;5139454;27;20023;-89
2021/04/08 01:55:20;;;;;;;10.05;5.43;;;;;;;;;;5139490;27;20030;-89
2021/04/08 01:57:47;;;;;;;10.60;5.60;;;;;;;;;;5138811;27;20023;-89
2021/04/08 02:00:14;;;;;;;10.00;6.15;;;;;;;;;;5139250;27;20027;-89
2021/04/08 02:02:42;;;;;;;21.15;8.77;;;;;;;;;;5139241;27;20031;-90
2021/04/08 02:05:16;;;;;;;17.17;8.40;;;;;;;;;;5138119;27;20172;-89
2021/04/08 02:07:44;;;;;;;14.23;7.10;;;;;;;;;;5138875;27;20020;-89
2021/04/08 02:10:11;;;;;;;18.48;8.30;;;;;;;;;;5138693;27;20023;-89
2021/04/08 02:18:45;;;;;;;17.50;6.50;;;;;;;;;;5117982;28;20116;-89
2021/04/08 02:21:11;;;;;;;13.25;6.53;;;;;;;;;;5117439;28;20028;-89
2021/04/08 02:23:40;;;;;;;13.93;7.25;;;;;;;;;;5118023;28;20024;-90
2021/04/08 02:26:09;;;;;;;10.80;6.25;;;;;;;;;;5118437;28;20023;-90
2021/04/08 02:31:39;;;;;;;7.78;5.22;;;;;;;;;;5118289;28;20420;-93
2021/04/08 02:34:06;;;;;;;12.13;6.43;;;;;;;;;;5117997;28;20039;-95
2021/04/08 02:36:32;;;;;;;11.18;6.72;;;;;;;;;;5117226;28;20402;-94
2021/04/08 02:38:58;;;;;;;12.98;6.00;;;;;;;;;;5118306;28;20062;-94
2021/04/08 02:41:24;;;;;;;10.77;6.47;;;;;;;;;;5117939;28;20118;-91
2021/04/08 02:46:53;;;;;;;7.85;4.88;;;;;;;;;;5138936;28;20321;-89
2021/04/08 02:49:19;;;;;;;9.15;5.07;;;;;;;;;;5138659;28;20071;-95
2021/04/08 02:51:54;;;;;;;6.53;4.30;;;;;;;;;;5138122;28;20397;-92
2021/04/08 02:54:39;;;;;;;6.28;4.60;;;;;;;;;;5138743;28;20026;-92
2021/04/08 02:57:06;;;;;;;21.63;14.43;;;;;;;;;;5138184;28;20431;-91
2021/04/08 02:59:41;;;;;;;67.30;33.25;;;;;;;;;;5138578;28;20039;-92
2021/04/08 03:02:09;;;;;;;19.45;11.27;;;;;;;;;;5138287;28;20023;-91
2021/04/08 03:04:37;;;;;;;10.95;6.90;;;;;;;;;;5137296;28;20317;-93
2021/04/08 03:07:04;;;;;;;13.18;8.20;;;;;;;;;;5137223;28;20425;-92
2021/04/08 03:09:34;;;;;;;10.90;7.90;;;;;;;;;;5139659;27;20059;-92
2021/04/08 03:12:07;;;;;;;10.80;7.00;;;;;;;;;;5142001;27;20417;-91
2021/04/08 03:17:36;;;;;;;;;;;;;;;;;;5142547;27;20022;-92
2021/04/08 03:20:03;;;;;;;10.45;5.40;;;;;;;;;;5141827;27;19915;-93
2021/04/08 03:22:29;;;;;;;7.68;5.57;;;;;;;;;;5142215;27;20035;-92
2021/04/08 03:24:56;;;;;;;11.38;6.03;;;;;;;;;;5142307;27;20026;-92
2021/04/08 03:27:23;;;;;;;11.95;6.45;;;;;;;;;;5140762;27;20032;-91
2021/04/08 03:29:49;;;;;;;16.35;7.60;;;;;;;;;;5142047;27;20023;-90
2021/04/08 03:32:19;;;;;;;17.75;9.55;;;;;;;;;;5140924;27;20314;-90
2021/04/08 03:34:46;;;;;;;11.60;7.75;;;;;;;;;;5141946;27;20023;-91
2021/04/08 03:37:12;;;;;;;15.32;7.82;;;;;;;;;;5141966;27;20020;-91
2021/04/08 03:39:39;;;;;;;12.77;7.68;;;;;;;;;;5140511;27;20027;-91
2021/04/08 03:42:07;;;;;;;23.70;10.48;;;;;;;;;;5141431;27;20404;-93
2021/04/08 03:44:34;;;;;;;25.35;12.70;;;;;;;;;;5141615;27;20019;-91
2021/04/08 03:47:01;;;;;;;29.40;12.88;;;;;;;;;;5141856;27;20057;-92
2021/04/08 03:49:27;;;;;;;23.08;11.38;;;;;;;;;;5140421;27;20424;-92
2021/04/08 03:51:54;;;;;;;23.88;11.25;;;;;;;;;;5141001;27;20031;-94
2021/04/08 03:54:21;;;;;;;21.80;10.57;;;;;;;;;;5141612;27;20027;-92
2021/04/08 03:56:48;;;;;;;21.92;11.52;;;;;;;;;;5140654;27;20062;-92
2021/04/08 04:05:06;;;;;;;24.90;11.07;;;;;;;;;;5141326;27;19926;-91
2021/04/08 04:07:34;;;;;;;22.52;10.57;;;;;;;;;;5141216;27;20065;-91
2021/04/08 04:10:00;;;;;;;25.10;10.52;;;;;;;;;;5141032;27;20098;-91
2021/04/08 04:12:27;;;;;;;28.17;10.75;;;;;;;;;;5141059;27;20109;-91
2021/04/08 04:14:57;;;;;;;24.33;10.77;;;;;;;;;;5139948;27;20110;-93
2021/04/08 04:17:31;;;;;;;23.55;10.50;;;;;;;;;;5140811;27;20019;-92
2021/04/08 04:19:57;;;;;;;18.33;9.82;;;;;;;;;;5140263;27;20047;-95
2021/04/08 04:22:24;;;;;;;18.55;8.30;;;;;;;;;;5140883;27;20043;-93
2021/04/08 04:24:50;;;;;;;42.13;20.75;;;;;;;;;;5139842;27;20011;-93
2021/04/08 04:27:16;;;;;;;29.50;14.13;;;;;;;;;;5140756;27;20023;-95
2021/04/08 04:29:42;;;;;;;14.80;9.52;;;;;;;;;;5139524;27;20449;-89
2021/04/08 04:32:09;;;;;;;18.13;8.52;;;;;;;;;;5140848;27;20023;-88
2021/04/08 04:34:36;;;;;;;13.82;7.25;;;;;;;;;;5140506;27;20015;-90
2021/04/08 04:37:02;;;;;;;18.20;8.05;;;;;;;;;;5140374;27;20294;-90
2021/04/08 04:39:28;;;;;;;18.52;7.78;;;;;;;;;;5140543;27;20019;-90
2021/04/08 04:41:54;;;;;;;18.33;7.10;;;;;;;;;;5140408;27;20061;-92
2021/04/08 04:44:21;;;;;;;16.30;7.70;;;;;;;;;;5140427;27;20027;-91
2021/04/08 04:46:47;;;;;;;10.90;6.10;;;;;;;;;;5140147;27;20023;-91
2021/04/08 04:49:13;;;;;;;9.95;6.07;;;;;;;;;;5139394;27;20472;-94
2021/04/08 04:51:39;;;;;;;13.85;7.30;;;;;;;;;;5140233;27;20027;-93
2021/04/08 04:54:05;;;;;;;14.48;8.20;;;;;;;;;;5140249;27;20035;-93
2021/04/08 04:56:31;;;;;;;29.33;14.20;;;;;;;;;;5140217;27;20026;-93
2021/04/08 04:58:58;;;;;;;33.25;17.67;;;;;;;;;;5140311;27;20019;-93
2021/04/08 05:01:24;;;;;;;38.55;17.77;;;;;;;;;;5139891;27;20019;-93
2021/04/08 05:03:50;;;;;;;39.88;17.25;;;;;;;;;;5139225;27;20026;-91
2021/04/08 05:06:16;;;;;;;61.97;26.75;;;;;;;;;;5140209;27;20012;-91
2021/04/08 05:08:42;;;;;;;47.80;25.60;;;;;;;;;;5138993;27;20015;-93
2021/04/08 05:11:08;;;;;;;52.47;28.25;;;;;;;;;;5139733;27;20389;-93
2021/04/08 05:13:34;;;;;;;41.22;18.20;;;;;;;;;;5138767;27;20027;-92
2021/04/08 05:16:01;;;;;;;16.25;9.38;;;;;;;;;;5138679;27;20027;-91
2021/04/08 05:18:27;;;;;;;21.30;10.70;;;;;;;;;;5138770;27;20068;-93
2021/04/08 05:20:53;;;;;;;19.05;9.73;;;;;;;;;;5139565;27;20043;-92
2021/04/08 05:23:19;;;;;;;25.90;11.23;;;;;;;;;;5138638;27;20019;-92
2021/04/08 05:25:45;;;;;;;29.85;12.82;;;;;;;;;;5138860;27;20032;-91
2021/04/08 05:28:11;;;;;;;24.92;11.70;;;;;;;;;;5138861;27;20023;-92
2021/04/08 05:30:37;;;;;;;25.45;12.20;;;;;;;;;;5138504;27;20031;-89
2021/04/08 05:33:03;;;;;;;17.58;8.63;;;;;;;;;;5139339;27;20102;-88
2021/04/08 05:35:29;;;;;;;14.13;8.13;;;;;;;;;;5139412;27;20027;-91
2021/04/08 05:37:55;;;;;;;16.48;9.18;;;;;;;;;;5139314;27;20054;-94
2021/04/08 05:40:22;;;;;;;24.35;9.65;;;;;;;;;;5138331;27;20031;-92
2021/04/08 05:42:48;;;;;;;30.42;12.73;;;;;;;;;;5139136;27;20094;-90
2021/04/08 05:45:17;;;;;;;24.80;12.15;;;;;;;;;;5139366;27;20019;-92
2021/04/08 05:47:43;;;;;;;16.52;10.20;;;;;;;;;;5138200;27;20023;-93
2021/04/08 05:50:12;;;;;;;22.10;10.85;;;;;;;;;;5139346;27;20126;-92
2021/04/08 05:52:38;;;;;;;18.48;9.55;;;;;;;;;;5139537;27;20324;-90
2021/04/08 05:55:04;;;;;;;20.75;10.98;;;;;;;;;;5139229;27;20027;-90
2021/04/08 05:57:31;;;;;;;15.93;9.57;;;;;;;;;;5138802;27;20483;-91
2021/04/08 05:59:57;;;;;;;16.67;11.63;;;;;;;;;;5139207;27;20023;-92
2021/04/08 06:02:23;;;;;;;43.63;24.95;;;;;;;;;;5139082;27;20481;-92
2021/04/08 06:04:49;;;;;;;66.60;34.42;;;;;;;;;;5139005;27;20434;-92
2021/04/08 06:07:15;;;;;;;102.55;45.10;;;;;;;;;;5138718;27;20063;-92
2021/04/08 06:09:41;;;;;;;202.27;87.50;;;;;;;;;;5138701;27;20027;-91
2021/04/08 06:12:07;;;;;;;69.72;33.63;;;;;;;;;;5138887;27;20074;-91
2021/04/08 06:14:35;;;;;;;41.33;25.88;;;;;;;;;;5138682;27;20401;-92
2021/04/08 06:17:01;;;;;;;20.55;13.40;;;;;;;;;;5138926;27;20019;-91
2021/04/08 06:19:27;;;;;;;20.15;12.32;;;;;;;;;;5138591;27;20043;-91
2021/04/08 06:21:53;;;;;;;20.30;12.30;;;;;;;;;;5138750;27;20027;-91
2021/04/08 06:24:19;;;;;;;15.20;8.95;;;;;;;;;;5138633;27;20024;-92
2021/04/08 06:26:46;;;;;;;18.15;10.10;;;;;;;;;;5138693;28;20025;-91
2021/04/08 06:29:12;;;;;;;17.40;10.50;;;;;;;;;;5138600;28;20020;-93
2021/04/08 06:31:38;;;;;;;15.65;9.15;;;;;;;;;;5138812;28;20027;-92
2021/04/08 06:34:04;;;;;;;16.35;10.27;;;;;;;;;;5138866;28;20019;-90
2021/04/08 06:36:30;;;;;;;15.07;9.07;;;;;;;;;;5138551;28;20027;-92
2021/04/08 06:38:56;;;;;;;16.25;8.80;;;;;;;;;;5138399;28;20019;-91
2021/04/08 06:41:22;;;;;;;13.98;8.77;;;;;;;;;;5138421;28;20358;-91
2021/04/08 06:43:49;;;;;;;16.88;8.68;;;;;;;;;;5140506;27;20126;-90
2021/04/08 06:46:16;;;;;;;17.17;9.60;;;;;;;;;;5142998;27;20022;-89
2021/04/08 06:48:44;;;;;;;11.70;7.28;;;;;;;;;;5142663;27;20102;-90
2021/04/08 06:51:12;;;;;;;12.68;7.65;;;;;;;;;;5142606;27;20027;-90
2021/04/08 06:53:40;;;;;;;13.27;7.97;;;;;;;;;;5142704;27;20051;-89
2021/04/08 06:56:08;;;;;;;13.75;8.18;;;;;;;;;;5142489;27;20053;-89
2021/04/08 06:58:34;;;;;;;15.85;8.75;;;;;;;;;;5137168;27;20123;-91
2021/04/08 07:01:00;;;;;;;18.33;8.43;;;;;;;;;;5110958;28;20023;-89
2021/04/08 07:03:27;;;;;;;13.55;8.77;;;;;;;;;;5115831;28;20028;-84
2021/04/08 07:05:53;;;;;;;15.40;9.07;;;;;;;;;;5118240;28;20024;-91
2021/04/08 07:08:19;;;;;;;13.02;7.50;;;;;;;;;;5102299;28;20024;-91
2021/04/08 07:10:45;;;;;;;14.73;9.82;;;;;;;;;;5100431;28;20054;-90
2021/04/08 07:13:11;;;;;;;14.80;9.32;;;;;;;;;;5101058;28;20024;-89
2021/04/08 07:15:37;;;;;;;13.27;7.45;;;;;;;;;;5101275;28;20125;-89
2021/04/08 07:18:05;;;;;;;13.20;6.72;;;;;;;;;;5100262;28;20406;-88
2021/04/08 07:20:31;;;;;;;16.13;8.50;;;;;;;;;;5099826;28;20047;-89
2021/04/08 07:23:10;;;;;;;12.80;7.72;;;;;;;;;;5100901;28;20481;-88
2021/04/08 07:25:36;;;;;;;24.35;12.35;;;;;;;;;;5100828;28;20028;-89
2021/04/08 07:28:22;;;;;;;65.05;22.50;;;;;;;;;;5100774;28;20020;-88
2021/04/08 07:30:48;;;;;;;113.10;35.33;;;;;;;;;;5100686;28;20024;-89
2021/04/08 07:33:14;;;;;;;119.63;37.03;;;;;;;;;;5101019;28;20048;-90
2021/04/08 07:35:41;;;;;;;206.32;57.45;;;;;;;;;;5100736;28;20070;-87
2021/04/08 07:38:08;;;;;;;208.02;59.03;;;;;;;;;;5100689;28;20054;-89
2021/04/08 07:40:34;;;;;;;33.58;14.82;;;;;;;;;;5099812;28;20032;-89
2021/04/08 07:43:20;;;;;;;70.97;31.33;;;;;;;;;;5099263;28;20403;-87
2021/04/08 07:45:46;;;;;;;23.83;13.45;;;;;;;;;;5099582;28;20077;-89
2021/04/08 07:48:12;;;;;;;18.42;10.50;;;;;;;;;;5100389;28;20103;-88
2021/04/08 07:50:39;;;;;;;21.48;9.50;;;;;;;;;;5100394;28;20028;-88
2021/04/08 07:53:06;;;;;;;19.60;9.48;;;;;;;;;;5100399;28;20051;-90
2021/04/08 07:55:32;;;;;;;21.77;11.73;;;;;;;;;;5098633;28;20040;-88
2021/04/08 07:58:06;;;;;;;15.07;7.50;;;;;;;;;;5099368;28;20028;-89
2021/04/08 08:00:32;;;;;;;11.32;6.60;;;;;;;;;;5100407;28;20028;-89
2021/04/08 08:03:00;;;;;;;16.17;7.30;;;;;;;;;;5100687;28;20039;-89
2021/04/08 08:05:28;;;;;;;11.95;7.53;;;;;;;;;;5100130;28;20111;-89
2021/04/08 08:07:55;;;;;;;12.50;7.25;;;;;;;;;;5100176;28;20024;-90
2021/04/08 08:10:23;;;;;;;13.02;7.28;;;;;;;;;;5100056;28;20035;-90
2021/04/08 08:12:49;;;;;;;8.48;5.38;;;;;;;;;;5100025;28;20024;-91
2021/04/08 08:15:23;;;;;;;13.27;6.70;;;;;;;;;;5100217;28;20081;-90
2021/04/08 08:17:49;;;;;;;13.38;7.70;;;;;;;;;;5099984;28;20027;-90
2021/04/08 08:20:16;;;;;;;13.02;6.53;;;;;;;;;;5099657;28;20044;-90
2021/04/08 08:22:42;;;;;;;10.38;6.20;;;;;;;;;;5100022;28;20024;-90
2021/04/08 08:25:13;;;;;;;11.57;7.05;;;;;;;;;;5099878;28;20020;-90
2021/04/08 08:27:42;;;;;;;15.23;7.55;;;;;;;;;;5100115;28;20023;-90
2021/04/08 08:30:12;;;;;;;15.65;8.07;;;;;;;;;;5099922;28;20032;-91
2021/04/08 08:32:38;;;;;;;18.52;10.00;;;;;;;;;;5099399;28;20295;-89
2021/04/08 08:35:05;;;;;;;16.92;10.60;;;;;;;;;;5098677;28;20036;-89
2021/04/08 08:37:32;;;;;;;20.90;12.07;;;;;;;;;;5099869;28;20023;-89
2021/04/08 08:39:58;;;;;;;25.45;15.32;;;;;;;;;;5099746;28;20103;-88
2021/04/08 08:42:25;;;;;;;23.85;12.02;;;;;;;;;;5099483;28;20035;-89
2021/04/08 08:44:53;;;;;;;29.42;15.63;;;;;;;;;;5098471;28;20348;-88
2021/04/08 08:47:29;;;;;;;25.63;15.05;;;;;;;;;;5098371;28;20048;-88
2021/04/08 08:49:57;;;;;;;21.42;12.02;;;;;;;;;;5099481;28;20024;-89
2021/04/08 08:52:36;;;;;;;19.52;11.48;;;;;;;;;;5099031;28;20036;-89
2021/04/08 08:55:07;;;;;;;19.40;9.82;;;;;;;;;;5109660;27;20030;-88
2021/04/08 08:57:33;;;;;;;15.25;8.63;;;;;;;;;;5120299;27;20020;-88
2021/04/08 09:00:00;;;;;;;14.77;9.00;;;;;;;;;;5119305;28;20047;-88
2021/04/08 09:02:26;;;;;;;12.18;7.32;;;;;;;;;;5119406;28;20038;-88
2021/04/08 09:04:54;;;;;;;8.32;5.28;;;;;;;;;;5119928;28;20027;-88
2021/04/08 09:07:20;;;;;;;15.00;7.97;;;;;;;;;;5119595;28;20409;-88
2021/04/08 09:09:51;;;;;;;13.93;6.82;;;;;;;;;;5119440;28;20020;-87
2021/04/08 09:12:18;;;;;;;13.07;7.00;;;;;;;;;;5119373;28;20095;-87
2021/04/08 09:15:05;;;;;;;16.17;7.50;;;;;;;;;;5119230;28;20098;-87
2021/04/08 09:17:39;;;;;;;11.52;6.93;;;;;;;;;;5119034;28;20398;-83
2021/04/08 09:20:09;;;;;;;24.60;13.55;;;;;;;;;;5117814;28;20437;-87
2021/04/08 09:22:48;;;;;;;9.23;5.95;;;;;;;;;;5119216;28;20023;-88
2021/04/08 09:25:15;;;;;;;15.23;9.95;;;;;;;;;;5118523;28;20024;-86
2021/04/08 09:27:49;;;;;;;13.65;8.13;;;;;;;;;;5117667;28;20321;-87
2021/04/08 09:30:31;;;;;;;11.02;4.75;;;;;;;;;;5118891;28;20027;-87
2021/04/08 09:32:57;;;;;;;13.53;5.17;;;;;;;;;;5118967;28;20046;-87
2021/04/08 09:35:27;;;;;;;12.32;4.50;;;;;;;;;;5118817;28;20115;-87
2021/04/08 09:37:54;;;;;;;15.32;4.97;;;;;;;;;;5118697;28;20028;-87
2021/04/08 09:40:23;;;;;;;12.70;5.65;;;;;;;;;;5118941;28;20028;-87
2021/04/08 09:42:53;;;;;;;18.67;5.30;;;;;;;;;;5118567;28;20402;-87
2021/04/08 09:45:20;;;;;;;13.02;5.00;;;;;;;;;;5118841;28;20031;-88
2021/04/08 09:47:46;;;;;;;13.13;4.45;;;;;;;;;;5118488;28;20401;-86
2021/04/08 09:50:38;;;;;;;16.42;5.63;;;;;;;;;;5118545;28;20126;-86
2021/04/08 09:53:04;;;;;;;9.73;4.13;;;;;;;;;;5118423;28;20035;-87
2021/04/08 09:55:34;;;;;;;8.57;4.68;;;;;;;;;;5117192;28;20066;-87
2021/04/08 09:58:00;;;;;;;7.20;4.00;;;;;;;;;;5117520;28;20028;-86
2021/04/08 10:00:27;;;;;;;4.60;2.83;;;;;;;;;;5118286;28;20028;-86
2021/04/08 10:03:00;;;;;;;5.57;2.80;;;;;;;;;;5118516;28;20020;-84
2021/04/08 10:05:30;;;;;;;7.90;4.55;;;;;;;;;;5117298;28;20031;-77
2021/04/08 10:07:58;;;;;;;9.30;4.45;;;;;;;;;;5117946;28;20024;-78
2021/04/08 10:10:37;;;;;;;9.15;5.32;;;;;;;;;;5117600;28;20026;-78
2021/04/08 10:13:22;;;;;;;9.15;5.65;;;;;;;;;;5117718;28;20355;-78
2021/04/08 10:15:49;;;;;;;5.18;2.67;;;;;;;;;;5117502;28;20405;-79
2021/04/08 10:18:24;;;;;;;7.68;3.63;;;;;;;;;;5117052;28;20110;-81
2021/04/08 10:20:51;;;;;;;6.95;3.78;;;;;;;;;;5116129;28;20125;-81
2021/04/08 10:23:33;;;;;;;6.50;2.95;;;;;;;;;;5116766;28;20031;-82
2021/04/08 10:25:59;;;;;;;;;;;;;;;;;;5118030;28;20405;-81
2021/04/08 10:28:26;;;;;;;4.22;2.50;;;;;;;;;;5117100;28;19910;-81
2021/04/08 10:30:52;;;;;;;3.88;2.40;;;;;;;;;;5116548;28;20019;-80
2021/04/08 10:33:19;;;;;;;4.50;2.45;;;;;;;;;;5117676;28;20024;-81
2021/04/08 10:35:45;;;;;;;5.45;2.67;;;;;;;;;;5117673;28;20031;-81
2021/04/08 10:38:12;;;;;;;4.97;2.38;;;;;;;;;;5116510;28;20023;-81
2021/04/08 10:40:38;;;;;;;4.30;2.92;;;;;;;;;;5117448;28;20042;-81
2021/04/08 10:43:11;;;;;;;7.55;3.50;;;;;;;;;;5117314;28;20195;-81
2021/04/08 10:45:38;;;;;;;4.60;3.08;;;;;;;;;;5117515;28;20111;-81
2021/04/08 10:48:06;;;;;;;6.88;4.07;;;;;;;;;;5117721;28;20065;-81
2021/04/08 10:50:33;;;;;;;9.02;3.20;;;;;;;;;;5117692;28;20031;-81
2021/04/08 10:53:00;;;;;;;8.18;3.25;;;;;;;;;;5117425;28;20069;-81
2021/04/08 10:55:26;;;;;;;5.90;3.15;;;;;;;;;;5116229;28;20030;-81
2021/04/08 10:57:53;;;;;;;6.35;3.42;;;;;;;;;;5117273;28;20397;-82
2021/04/08 11:00:19;;;;;;;5.22;2.88;;;;;;;;;;5115810;28;20321;-83
2021/04/08 11:02:46;;;;;;;6.22;3.10;;;;;;;;;;5117373;28;20019;-84
2021/04/08 11:05:30;;;;;;;8.52;3.30;;;;;;;;;;5117637;28;20348;-83
2021/04/08 11:07:58;;;;;;;3.92;2.67;;;;;;;;;;5117747;28;20317;-85
2021/04/08 11:10:24;;;;;;;4.03;2.60;;;;;;;;;;5116458;28;20023;-84
2021/04/08 11:12:51;;;;;;;6.53;3.40;;;;;;;;;;5117649;28;20102;-83
2021/04/08 11:15:20;;;;;;;4.95;3.50;;;;;;;;;;5117334;28;20032;-84
2021/04/08 11:17:47;;;;;;;5.32;3.30;;;;;;;;;;5117573;28;20024;-84
2021/04/08 11:20:15;;;;;;;7.20;3.47;;;;;;;;;;5117291;28;20047;-84
2021/04/08 11:22:45;;;;;;;11.65;5.80;;;;;;;;;;5117410;28;20031;-83
2021/04/08 11:25:13;;;;;;;6.25;3.58;;;;;;;;;;5117329;28;20047;-84
2021/04/08 11:27:43;;;;;;;5.18;2.88;;;;;;;;;;5117291;28;20030;-83
2021/04/08 11:30:10;;;;;;;7.38;3.67;;;;;;;;;;5119193;28;20098;-84
2021/04/08 11:32:54;;;;;;;9.82;5.28;;;;;;;;;;5121003;28;20304;-84
2021/04/08 11:35:33;;;;;;;7.35;4.15;;;;;;;;;;5121264;28;20028;-84
2021/04/08 11:38:05;;;;;;;9.70;4.03;;;;;;;;;;5121249;28;20027;-84
2021/04/08 11:40:31;;;;;;;7.18;4.40;;;;;;;;;;5120864;28;20029;-84
2021/04/08 11:42:57;;;;;;;9.40;5.00;;;;;;;;;;5120913;28;20027;-84
2021/04/08 11:45:31;;;;;;;47.80;25.15;;;;;;;;;;5120861;28;20024;-84
2021/04/08 11:48:02;;;;;;;33.08;18.83;;;;;;;;;;5120791;28;20031;-84
2021/04/08 11:50:29;;;;;;;28.70;18.15;;;;;;;;;;5121218;28;20039;-85
2021/04/08 11:53:08;;;;;;;9.15;4.30;;;;;;;;;;5120816;28;20039;-85
2021/04/08 11:55:37;;;;;;;16.27;9.70;;;;;;;;;;5120952;28;20419;-84
2021/04/08 11:58:03;;;;;;;9.50;5.50;;;;;;;;;;5119804;28;20035;-84
2021/04/08 12:00:30;;;;;;;5.18;3.20;;;;;;;;;;5120530;28;20024;-85
2021/04/08 12:02:56;;;;;;;10.25;4.63;;;;;;;;;;5119333;28;20507;-84
2021/04/08 12:05:23;;;;;;;8.73;2.85;;;;;;;;;;5120689;28;20020;-84
2021/04/08 12:07:50;;;;;;;30.02;17.50;;;;;;;;;;5120669;28;20015;-83
2021/04/08 12:10:26;;;;;;;40.83;24.85;;;;;;;;;;5118757;28;20032;-83
2021/04/08 12:12:57;;;;;;;15.07;8.63;;;;;;;;;;5120345;28;20027;-83
2021/04/08 12:15:33;;;;;;;28.67;16.25;;;;;;;;;;5119999;28;20028;-83
2021/04/08 12:17:59;;;;;;;9.60;4.32;;;;;;;;;;5120293;28;20114;-83
2021/04/08 12:20:25;;;;;;;27.42;14.80;;;;;;;;;;5119868;28;20341;-83
2021/04/08 12:22:54;;;;;;;16.60;9.20;;;;;;;;;;5120104;28;20429;-83
2021/04/08 12:25:21;;;;;;;26.60;12.80;;;;;;;;;;5118097;28;20028;-83
2021/04/08 12:27:49;;;;;;;18.65;10.30;;;;;;;;;;5119690;28;20352;-83
2021/04/08 12:30:15;;;;;;;50.92;29.83;;;;;;;;;;5119705;28;20076;-84
2021/04/08 12:32:41;;;;;;;26.95;7.03;;;;;;;;;;5120298;28;20414;-84
2021/04/08 12:35:08;;;;;;;12.90;5.72;;;;;;;;;;5118596;28;20474;-84
2021/04/08 12:37:34;;;;;;;17.85;9.57;;;;;;;;;;5120094;28;20027;-84
2021/04/08 12:40:00;;;;;;;15.95;9.25;;;;;;;;;;5119755;28;20402;-85
2021/04/08 12:42:26;;;;;;;22.13;8.75;;;;;;;;;;5119737;28;20299;-84
2021/04/08 12:44:52;;;;;;;19.02;8.05;;;;;;;;;;5119802;28;20051;-85
2021/04/08 12:47:20;;;;;;;24.48;10.82;;;;;;;;;;5119993;28;20027;-85
2021/04/08 12:49:46;;;;;;;13.57;6.18;;;;;;;;;;5119914;28;20031;-92
2021/04/08 12:52:12;;;;;;;10.27;5.85;;;;;;;;;;5119713;28;20032;-85
2021/04/08 12:54:38;;;;;;;18.23;9.35;;;;;;;;;;5119619;28;20415;-85
2021/04/08 12:57:05;;;;;;;22.42;12.23;;;;;;;;;;5119472;28;20030;-82
2021/04/08 12:59:31;;;;;;;16.52;8.88;;;;;;;;;;5118909;28;20107;-78
2021/04/08 13:01:57;;;;;;;6.13;3.30;;;;;;;;;;5117356;28;20059;-77
2021/04/08 13:04:24;;;;;;;16.42;11.23;;;;;;;;;;5126958;27;20019;-77
2021/04/08 13:06:51;;;;;;;10.38;4.55;;;;;;;;;;5121468;27;20023;-78
2021/04/08 13:09:17;;;;;;;12.27;7.88;;;;;;;;;;5118908;28;20024;-78
2021/04/08 13:11:43;;;;;;;10.40;5.50;;;;;;;;;;5118846;28;20031;-78
2021/04/08 13:14:09;;;;;;;9.50;4.65;;;;;;;;;;5117495;28;20454;-78
2021/04/08 13:16:35;;;;;;;6.35;2.33;;;;;;;;;;5118678;28;20024;-75
2021/04/08 13:19:02;;;;;;;4.97;2.97;;;;;;;;;;5118459;28;20048;-78
2021/04/08 13:21:28;;;;;;;6.45;2.55;;;;;;;;;;5117526;28;20036;-78
2021/04/08 13:23:55;;;;;;;5.90;2.40;;;;;;;;;;5117207;28;20363;-78
2021/04/08 13:26:21;;;;;;;3.85;2.13;;;;;;;;;;5116979;28;20028;-78
2021/04/08 13:28:48;;;;;;;5.18;2.00;;;;;;;;;;5118354;28;20027;-78
2021/04/08 13:31:14;;;;;;;7.82;1.88;;;;;;;;;;5118551;28;20028;-78
2021/04/08 13:33:40;;;;;;;4.50;2.58;;;;;;;;;;5118372;28;20019;-78
2021/04/08 13:36:06;;;;;;;11.32;2.45;;;;;;;;;;5118189;28;20023;-77
2021/04/08 13:38:32;;;;;;;8.00;2.75;;;;;;;;;;5116791;28;20035;-78
2021/04/08 13:40:58;;;;;;;11.27;3.05;;;;;;;;;;5118169;28;20027;-78
2021/04/08 13:43:24;;;;;;;7.43;2.92;;;;;;;;;;5118102;28;20043;-77
2021/04/08 13:45:50;;;;;;;9.38;4.50;;;;;;;;;;5116622;28;20032;-78
2021/04/08 13:48:16;;;;;;;9.20;4.00;;;;;;;;;;5117986;28;20020;-77
2021/04/08 13:50:42;;;;;;;7.82;3.10;;;;;;;;;;5118054;28;20023;-78
2021/04/08 13:53:08;;;;;;;2.08;1.33;;;;;;;;;;5117296;28;20034;-78
2021/04/08 13:55:35;;;;;;;106.15;43.08;;;;;;;;;;5117734;28;20468;-77
2021/04/08 13:58:01;;;;;;;68.55;27.27;;;;;;;;;;5117957;28;20059;-77
2021/04/08 14:00:27;;;;;;;19.48;11.10;;;;;;;;;;5117642;28;20032;-78
2021/04/08 14:02:53;;;;;;;17.75;2.80;;;;;;;;;;5118029;28;20027;-78
2021/04/08 14:05:20;;;;;;;16.73;2.25;;;;;;;;;;5117846;28;20023;-78
2021/04/08 14:07:46;;;;;;;17.98;3.25;;;;;;;;;;5117578;28;20028;-77
2021/04/08 14:10:13;;;;;;;10.30;2.60;;;;;;;;;;5117847;28;20477;-77
2021/04/08 14:12:40;;;;;;;13.57;1.80;;;;;;;;;;5117689;28;20070;-77
2021/04/08 14:15:08;;;;;;;8.90;1.65;;;;;;;;;;5117467;28;20018;-78
2021/04/08 14:17:34;;;;;;;11.85;1.73;;;;;;;;;;5117936;28;20020;-78
2021/04/08 14:20:01;;;;;;;5.57;1.70;;;;;;;;;;5117462;28;20048;-78
2021/04/08 14:22:28;;;;;;;6.38;1.70;;;;;;;;;;5117583;28;20055;-77
2021/04/08 14:24:54;;;;;;;38.97;12.85;;;;;;;;;;5117688;28;20030;-78
2021/04/08 14:27:20;;;;;;;113.60;29.10;;;;;;;;;;5116477;28;20464;-77
2021/04/08 14:29:46;;;;;;;233.23;54.08;;;;;;;;;;5117348;28;20019;-77
2021/04/08 14:32:15;;;;;;;154.75;40.50;;;;;;;;;;5117423;28;20054;-78
2021/04/08 14:34:41;;;;;;;57.03;17.13;;;;;;;;;;5117634;28;20099;-77
2021/04/08 14:37:07;;;;;;;18.67;6.78;;;;;;;;;;5117416;28;20110;-77
2021/04/08 14:39:33;;;;;;;19.73;8.02;;;;;;;;;;5116003;28;20046;-77
2021/04/08 14:42:00;;;;;;;11.40;5.70;;;;;;;;;;5117304;28;20020;-77
2021/04/08 14:44:26;;;;;;;4.05;2.60;;;;;;;;;;5117272;28;20019;-78
2021/04/08 14:46:52;;;;;;;12.55;5.05;;;;;;;;;;5117606;28;20057;-78
2021/04/08 14:49:18;;;;;;;15.60;5.30;;;;;;;;;;5117511;27;20313;-77
2021/04/08 14:51:44;;;;;;;16.45;5.95;;;;;;;;;;5117449;28;20040;-77
2021/04/08 14:54:10;;;;;;;10.20;4.70;;;;;;;;;;5117438;28;20019;-77
2021/04/08 14:56:36;;;;;;;6.03;3.53;;;;;;;;;;5117304;28;20048;-77
2021/04/08 14:59:02;;;;;;;9.20;4.45;;;;;;;;;;5117128;28;20028;-77